Time;durP1;ratioP1;P1;durP2;ratioP2;P2;SDS_P1;SDS_P2;PMS_P1;PMS_P2;Temp;Humidity;BMP_temperature;BMP_pressure;BME280_temperature;BME280_humidity;BME280_pressure;Samples;Min_cycle;Max_cycle;Signal;HPM_P1;HPM_P2
2022/04/19 00:01:18;;;;;;;2.78;1.80;;;22.70;32.80;;;;;;5062446;28;20064;-79
2022/04/19 00:03:44;;;;;;;2.20;1.60;;;22.70;32.80;;;;;;5060396;28;20057;-81
2022/04/19 00:06:10;;;;;;;1.90;1.50;;;22.70;32.90;;;;;;5042355;28;20026;-80
2022/04/19 00:08:37;;;;;;;2.55;1.88;;;22.60;32.80;;;;;;5058972;28;20017;-80
2022/04/19 00:11:04;;;;;;;2.63;1.67;;;22.60;32.90;;;;;;5059147;28;20048;-80
2022/04/19 00:13:30;;;;;;;2.58;1.58;;;22.70;33.00;;;;;;5059321;28;20047;-79
2022/04/19 00:15:57;;;;;;;1.90;1.60;;;22.60;33.00;;;;;;5043341;28;20049;-79
2022/04/19 00:18:23;;;;;;;2.13;1.40;;;22.60;33.00;;;;;;5060199;28;20078;-81
2022/04/19 00:20:49;;;;;;;3.00;1.77;;;22.60;33.00;;;;;;5059859;28;20034;-80
2022/04/19 00:23:16;;;;;;;1.77;1.58;;;22.60;33.10;;;;;;5059101;28;20099;-81
2022/04/19 00:25:45;;;;;;;2.55;1.77;;;22.60;33.10;;;;;;5059323;28;20025;-83
2022/04/19 00:28:11;;;;;;;2.20;1.63;;;22.60;33.20;;;;;;5058903;28;20024;-83
2022/04/19 00:30:40;;;;;;;2.25;1.77;;;22.60;33.30;;;;;;5059349;28;20017;-84
2022/04/19 00:33:07;;;;;;;2.65;1.75;;;22.60;33.20;;;;;;5042896;28;20048;-83
2022/04/19 00:35:33;;;;;;;2.30;1.75;;;22.60;33.30;;;;;;5059349;28;20020;-83
2022/04/19 00:37:59;;;;;;;2.60;1.75;;;22.60;33.30;;;;;;5057686;28;19994;-83
2022/04/19 00:40:25;;;;;;;2.80;1.83;;;22.60;33.30;;;;;;5058466;28;20028;-83
2022/04/19 00:42:53;;;;;;;2.58;2.03;;;22.60;33.40;;;;;;5058468;28;20024;-83
2022/04/19 00:45:20;;;;;;;2.50;1.55;;;22.60;33.40;;;;;;5057577;28;20009;-82
2022/04/19 00:47:47;;;;;;;2.90;2.00;;;22.60;33.40;;;;;;5056152;28;20022;-84
2022/04/19 00:50:13;;;;;;;2.45;1.70;;;22.60;33.50;;;;;;5043317;28;20014;-82
2022/04/19 00:52:38;;;;;;;1.95;1.70;;;22.50;33.50;;;;;;5040670;28;20029;-83
2022/04/19 00:55:07;;;;;;;2.00;1.63;;;22.50;33.50;;;;;;5052621;28;20017;-82
2022/04/19 00:57:34;;;;;;;3.58;2.03;;;22.50;34.10;;;;;;5055462;28;20006;-82
2022/04/19 01:00:00;;;;;;;3.78;1.80;;;22.60;33.60;;;;;;5054617;28;20047;-82
2022/04/19 01:02:27;;;;;;;2.55;1.70;;;22.60;33.60;;;;;;5053934;28;20030;-83
2022/04/19 01:04:56;;;;;;;2.72;1.63;;;22.60;33.70;;;;;;5038609;28;20012;-82
2022/04/19 01:07:22;;;;;;;2.40;1.70;;;22.50;33.60;;;;;;5038612;28;20021;-82
2022/04/19 01:09:48;;;;;;;2.75;1.77;;;22.50;33.70;;;;;;5030840;28;20021;-82
2022/04/19 01:15:09;;;;;;;2.40;1.65;;;22.50;33.80;;;;;;5044387;28;20119;-82
2022/04/19 01:17:39;;;;;;;2.97;2.00;;;22.50;33.80;;;;;;5046794;28;20033;-84
2022/04/19 01:20:06;;;;;;;2.55;1.60;;;22.50;33.80;;;;;;5044006;28;20010;-83
2022/04/19 01:22:36;;;;;;;3.58;1.90;;;22.50;33.90;;;;;;5046381;28;20060;-84
2022/04/19 01:25:02;;;;;;;3.90;1.88;;;22.50;33.90;;;;;;5046609;28;20017;-82
2022/04/19 01:27:29;;;;;;;2.28;1.88;;;22.50;33.90;;;;;;5045563;28;20025;-81
2022/04/19 01:30:00;;;;;;;3.20;1.85;;;22.50;34.00;;;;;;5043431;28;20024;-81
2022/04/19 01:32:28;;;;;;;2.25;1.80;;;22.40;34.00;;;;;;5042301;28;20175;-82
2022/04/19 01:35:16;;;;;;;2.55;1.67;;;22.50;34.00;;;;;;5042570;28;20017;-80
2022/04/19 01:37:46;;;;;;;3.00;1.80;;;22.50;34.70;;;;;;5041810;28;20104;-80
2022/04/19 01:40:19;;;;;;;2.90;2.00;;;22.40;34.10;;;;;;5045776;28;20020;-83
2022/04/19 01:42:54;;;;;;;3.10;1.75;;;22.40;34.10;;;;;;5047812;28;20454;-82
2022/04/19 01:45:24;;;;;;;3.00;1.80;;;22.40;34.10;;;;;;5046743;28;20018;-79
2022/04/19 01:47:52;;;;;;;3.33;1.80;;;22.50;34.20;;;;;;5046505;28;20013;-79
2022/04/19 01:50:19;;;;;;;2.72;2.00;;;22.40;34.20;;;;;;5044238;28;20096;-80
2022/04/19 01:52:47;;;;;;;3.22;2.05;;;22.40;34.20;;;;;;5042849;28;20017;-80
2022/04/19 01:55:14;;;;;;;2.83;1.85;;;22.40;34.30;;;;;;5042460;28;20025;-80
2022/04/19 01:57:44;;;;;;;3.47;1.90;;;22.40;34.30;;;;;;5041418;28;20068;-80
2022/04/19 02:00:11;;;;;;;3.15;1.90;;;22.40;34.40;;;;;;5042643;28;20025;-79
2022/04/19 02:02:38;;;;;;;2.88;2.03;;;22.40;34.40;;;;;;5041931;28;20136;-81
2022/04/19 02:05:07;;;;;;;3.33;2.08;;;22.40;34.40;;;;;;5041544;28;20056;-81
2022/04/19 02:07:34;;;;;;;2.70;1.90;;;22.40;34.50;;;;;;5039763;28;20026;-79
2022/04/19 02:10:00;;;;;;;2.45;2.10;;;22.40;34.50;;;;;;5038746;28;20049;-77
2022/04/19 02:12:26;;;;;;;3.03;1.92;;;22.40;34.60;;;;;;5039012;28;20025;-77
2022/04/19 02:14:52;;;;;;;3.03;2.10;;;22.40;34.60;;;;;;5022747;28;20030;-77
2022/04/19 02:17:19;;;;;;;2.78;2.00;;;22.40;34.60;;;;;;5039888;28;20053;-77
2022/04/19 02:19:47;;;;;;;3.15;2.20;;;22.40;34.60;;;;;;5039011;28;20053;-76
2022/04/19 02:22:12;;;;;;;4.05;2.20;;;22.40;34.70;;;;;;5038610;28;20033;-78
2022/04/19 02:24:38;;;;;;;3.08;2.03;;;22.40;34.70;;;;;;5038338;28;20028;-79
2022/04/19 02:27:07;;;;;;;2.33;1.77;;;22.40;34.70;;;;;;5038143;28;20030;-79
2022/04/19 02:29:32;;;;;;;2.95;2.33;;;22.40;34.80;;;;;;5037434;28;20018;-79
2022/04/19 02:32:00;;;;;;;3.17;1.88;;;22.30;34.70;;;;;;5037120;28;20021;-80
2022/04/19 02:34:26;;;;;;;5.65;2.13;;;22.40;35.40;;;;;;5038111;28;20033;-80
2022/04/19 02:36:53;;;;;;;2.60;1.98;;;22.30;34.80;;;;;;5019842;28;20025;-79
2022/04/19 02:39:20;;;;;;;2.70;2.30;;;22.30;34.80;;;;;;5034740;28;20056;-79
2022/04/19 02:41:46;;;;;;;2.80;2.10;;;22.30;34.90;;;;;;5033443;28;20507;-79
2022/04/19 02:44:13;;;;;;;4.10;2.17;;;22.30;34.90;;;;;;5033362;28;20101;-79
2022/04/19 02:46:39;;;;;;;2.40;2.00;;;22.30;34.90;;;;;;5017773;28;20013;-79
2022/04/19 02:49:05;;;;;;;2.53;2.15;;;22.30;34.90;;;;;;5034002;28;20021;-80
2022/04/19 02:51:32;;;;;;;2.95;2.30;;;22.30;35.00;;;;;;5034821;28;20045;-81
2022/04/19 02:53:58;;;;;;;3.15;2.17;;;22.30;35.00;;;;;;5033972;28;20010;-80
2022/04/19 02:56:24;;;;;;;3.42;2.10;;;22.30;35.10;;;;;;5033314;28;20393;-81
2022/04/19 02:58:53;;;;;;;3.20;2.40;;;22.30;35.10;;;;;;5033276;28;20071;-81
2022/04/19 03:01:19;;;;;;;2.65;1.83;;;22.30;35.10;;;;;;5033307;28;20527;-80
2022/04/19 03:03:46;;;;;;;4.25;2.25;;;22.30;35.10;;;;;;5033062;28;20052;-81
2022/04/19 03:06:12;;;;;;;3.88;2.30;;;22.30;35.10;;;;;;5033651;28;20267;-80
2022/04/19 03:08:38;;;;;;;3.45;2.10;;;22.20;35.10;;;;;;5035561;28;20461;-83
2022/04/19 03:11:05;;;;;;;3.40;2.38;;;22.20;35.10;;;;;;5044147;28;20029;-81
2022/04/19 03:13:32;;;;;;;3.00;2.30;;;22.30;35.20;;;;;;5044093;28;20083;-81
2022/04/19 03:15:59;;;;;;;2.60;1.98;;;22.20;35.20;;;;;;5044230;28;20593;-82
2022/04/19 03:18:26;;;;;;;3.35;2.17;;;22.20;35.70;;;;;;5044951;28;20033;-82
2022/04/19 03:20:52;;;;;;;3.72;2.30;;;22.30;35.30;;;;;;5045076;28;20021;-83
2022/04/19 03:28:50;;;;;;;3.88;2.40;;;22.30;35.40;;;;;;5036422;28;20025;-80
2022/04/19 03:31:16;;;;;;;3.53;2.28;;;22.30;35.40;;;;;;5038000;28;20085;-81
2022/04/19 03:33:43;;;;;;;3.88;2.30;;;22.20;35.40;;;;;;5037666;28;20028;-81
2022/04/19 03:36:09;;;;;;;3.20;2.25;;;22.20;35.40;;;;;;5037551;28;20028;-82
2022/04/19 03:38:36;;;;;;;3.03;1.90;;;22.20;35.40;;;;;;5041189;28;20093;-80
2022/04/19 03:41:02;;;;;;;2.90;2.15;;;22.20;35.50;;;;;;5031211;28;20024;-82
2022/04/19 03:43:32;;;;;;;2.67;2.10;;;22.20;35.50;;;;;;5048771;28;20022;-83
2022/04/19 03:45:58;;;;;;;3.40;2.20;;;22.20;36.00;;;;;;5048160;28;20014;-82
2022/04/19 03:48:25;;;;;;;3.58;2.20;;;22.20;35.50;;;;;;5031467;28;20558;-81
2022/04/19 03:50:51;;;;;;;3.80;2.25;;;22.20;35.50;;;;;;5047203;28;20013;-80
2022/04/19 03:53:17;;;;;;;3.35;2.20;;;22.20;35.60;;;;;;5030714;28;20024;-82
2022/04/19 03:55:43;;;;;;;3.13;2.40;;;22.20;35.60;;;;;;5028028;28;20073;-83
2022/04/19 03:58:09;;;;;;;2.92;2.03;;;22.20;35.60;;;;;;5045054;28;20018;-81
2022/04/19 04:00:36;;;;;;;3.60;2.03;;;22.20;35.60;;;;;;5046198;28;20021;-81
2022/04/19 04:03:02;;;;;;;3.88;2.58;;;22.20;35.60;;;;;;5044781;28;20034;-82
2022/04/19 04:05:29;;;;;;;4.05;2.60;;;22.10;35.60;;;;;;5046662;28;20018;-82
2022/04/19 04:07:56;;;;;;;2.63;2.03;;;22.20;35.70;;;;;;5044715;28;20077;-80
2022/04/19 04:10:22;;;;;;;2.60;2.00;;;22.20;35.70;;;;;;5041691;28;20014;-79
2022/04/19 04:12:50;;;;;;;3.13;2.30;;;22.10;35.70;;;;;;5041144;28;20073;-79
2022/04/19 04:15:16;;;;;;;3.33;2.40;;;22.10;35.70;;;;;;5040380;28;20022;-78
2022/04/19 04:17:43;;;;;;;3.08;2.03;;;22.10;35.70;;;;;;5040470;28;20033;-79
2022/04/19 04:20:09;;;;;;;3.83;2.30;;;22.10;35.70;;;;;;5023305;28;20044;-80
2022/04/19 04:22:36;;;;;;;3.22;2.30;;;22.10;35.80;;;;;;5039508;28;20113;-79
2022/04/19 04:25:02;;;;;;;2.95;2.50;;;22.10;35.80;;;;;;5037423;28;20018;-79
2022/04/19 04:27:28;;;;;;;4.70;2.60;;;22.10;35.80;;;;;;5020439;28;20527;-79
2022/04/19 04:29:54;;;;;;;4.13;2.30;;;22.10;35.90;;;;;;5038243;28;20022;-79
2022/04/19 04:32:20;;;;;;;3.80;2.40;;;22.10;35.80;;;;;;5039561;28;20026;-78
2022/04/19 04:34:46;;;;;;;2.88;2.40;;;22.10;35.90;;;;;;5023266;28;20036;-79
2022/04/19 04:37:12;;;;;;;2.83;2.22;;;22.10;35.80;;;;;;5037874;28;20021;-78
2022/04/19 04:39:37;;;;;;;3.00;2.17;;;22.10;35.90;;;;;;5021284;28;20563;-79
2022/04/19 04:42:04;;;;;;;3.13;2.20;;;22.10;35.90;;;;;;5036414;28;20105;-79
2022/04/19 04:44:32;;;;;;;3.08;2.17;;;22.10;35.90;;;;;;5037150;28;20014;-79
2022/04/19 04:49:43;;;;;;;5.43;2.60;;;22.10;35.90;;;;;;5035110;28;20115;-80
2022/04/19 04:52:10;;;;;;;3.25;2.40;;;22.10;36.00;;;;;;5036293;28;20040;-79
2022/04/19 04:54:37;;;;;;;3.38;2.22;;;22.10;36.00;;;;;;5038806;28;20020;-79
2022/04/19 04:57:03;;;;;;;4.15;2.65;;;22.10;36.00;;;;;;5039627;28;20013;-79
2022/04/19 04:59:32;;;;;;;2.45;1.90;;;22.10;36.00;;;;;;5039246;28;20021;-80
2022/04/19 05:01:58;;;;;;;3.70;2.50;;;22.10;36.00;;;;;;5022100;28;20105;-80
2022/04/19 05:04:27;;;;;;;2.67;2.40;;;22.10;36.00;;;;;;5039353;28;20052;-79
2022/04/19 05:06:53;;;;;;;3.88;2.40;;;22.10;36.00;;;;;;5038863;28;20014;-78
2022/04/19 05:09:19;;;;;;;3.58;2.70;;;22.10;36.00;;;;;;5037959;28;20017;-79
2022/04/19 05:11:50;;;;;;;3.42;2.58;;;22.10;35.90;;;;;;5038281;28;20026;-78
2022/04/19 05:14:16;;;;;;;3.63;2.50;;;22.20;35.90;;;;;;5021849;28;20465;-79
2022/04/19 05:16:42;;;;;;;3.75;2.42;;;22.20;35.90;;;;;;5021310;28;20109;-80
2022/04/19 05:19:08;;;;;;;4.65;2.65;;;22.20;35.90;;;;;;5037688;28;20013;-79
2022/04/19 05:21:37;;;;;;;4.30;2.80;;;22.20;35.90;;;;;;5037878;28;20021;-79
2022/04/19 05:24:04;;;;;;;3.28;2.45;;;22.20;35.90;;;;;;5037899;28;20060;-79
2022/04/19 05:26:30;;;;;;;3.85;2.42;;;22.20;35.80;;;;;;5037749;28;20017;-79
2022/04/19 05:28:56;;;;;;;4.80;2.72;;;22.30;35.90;;;;;;5038550;28;20033;-79
2022/04/19 05:31:22;;;;;;;3.45;2.60;;;22.30;35.80;;;;;;5022366;28;20013;-79
2022/04/19 05:33:48;;;;;;;4.40;2.33;;;22.30;35.80;;;;;;5023126;28;20392;-79
2022/04/19 05:36:14;;;;;;;3.45;2.00;;;22.30;35.70;;;;;;5041479;28;20032;-78
2022/04/19 05:38:40;;;;;;;4.03;2.45;;;22.40;35.70;;;;;;5038873;28;20534;-79
2022/04/19 05:41:06;;;;;;;4.07;2.30;;;22.40;35.50;;;;;;5037620;28;20030;-79
2022/04/19 05:43:32;;;;;;;2.25;1.90;;;22.50;35.50;;;;;;5037664;28;20031;-78
2022/04/19 05:45:58;;;;;;;2.72;2.00;;;22.60;35.50;;;;;;5036709;28;20013;-79
2022/04/19 05:48:27;;;;;;;3.88;2.10;;;22.70;35.30;;;;;;5021399;28;20042;-77
2022/04/19 05:50:52;;;;;;;3.22;1.90;;;22.80;35.10;;;;;;5036747;28;20018;-78
2022/04/19 05:53:19;;;;;;;2.40;2.15;;;22.90;34.80;;;;;;5037736;28;20033;-78
2022/04/19 05:55:44;;;;;;;2.88;2.00;;;23.00;34.60;;;;;;5020132;28;20373;-78
2022/04/19 05:58:15;;;;;;;3.47;2.10;;;23.10;34.50;;;;;;5037142;28;20107;-77
2022/04/19 06:00:40;;;;;;;3.85;2.30;;;23.20;34.40;;;;;;5036080;28;20484;-78
2022/04/19 06:05:54;;;;;;;3.08;2.15;;;23.40;34.00;;;;;;5037064;28;20415;-78
2022/04/19 06:08:21;;;;;;;4.55;2.30;;;23.40;33.90;;;;;;5034799;28;20018;-76
2022/04/19 06:10:49;;;;;;;3.28;2.28;;;23.50;33.80;;;;;;5035225;28;20082;-79
2022/04/19 06:13:18;;;;;;;3.25;2.00;;;23.50;33.70;;;;;;5019085;28;20029;-78
2022/04/19 06:15:47;;;;;;;3.72;2.15;;;23.60;33.60;;;;;;5034531;28;20080;-76
2022/04/19 06:18:13;;;;;;;6.70;2.80;;;23.80;33.70;;;;;;5019078;28;20105;-76
2022/04/19 06:20:42;;;;;;;6.97;2.97;;;23.70;33.90;;;;;;5035604;28;20334;-78
2022/04/19 06:23:10;;;;;;;12.55;4.32;;;23.70;33.90;;;;;;5036254;28;20030;-77
2022/04/19 06:25:39;;;;;;;11.98;4.20;;;23.80;34.00;;;;;;5051368;28;20104;-77
2022/04/19 06:28:06;;;;;;;20.83;4.95;;;24.00;33.70;;;;;;5018817;28;20017;-76
2022/04/19 06:30:32;;;;;;;26.23;4.80;;;24.40;33.50;;;;;;5017011;28;20017;-77
2022/04/19 06:33:02;;;;;;;24.80;5.20;;;24.70;33.20;;;;;;5019500;28;20049;-77
2022/04/19 06:35:29;;;;;;;24.52;6.07;;;24.80;33.30;;;;;;5001928;28;20155;-76
2022/04/19 06:38:00;;;;;;;23.23;5.57;;;25.00;33.70;;;;;;5017285;28;20035;-77
2022/04/19 06:40:28;;;;;;;18.17;6.05;;;25.00;33.60;;;;;;5034337;28;20504;-79
2022/04/19 06:42:57;;;;;;;23.50;5.68;;;25.10;33.70;;;;;;5018024;28;20037;-78
2022/04/19 06:45:25;;;;;;;20.73;6.88;;;25.20;33.70;;;;;;5035975;28;20476;-77
2022/04/19 06:48:02;;;;;;;17.25;5.30;;;25.20;33.80;;;;;;5017777;28;20021;-77
2022/04/19 06:50:29;;;;;;;15.95;5.57;;;25.40;33.80;;;;;;5033459;28;20489;-77
2022/04/19 06:52:59;;;;;;;16.08;5.55;;;25.40;33.70;;;;;;5032952;28;20103;-78
2022/04/19 06:55:28;;;;;;;21.35;6.30;;;25.60;33.70;;;;;;5033165;28;20040;-80
2022/04/19 06:57:54;;;;;;;20.35;5.82;;;25.60;33.60;;;;;;5033514;28;20094;-77
2022/04/19 07:00:21;;;;;;;17.27;5.82;;;25.60;33.70;;;;;;5032784;28;20108;-80
2022/04/19 07:02:49;;;;;;;14.45;5.80;;;25.50;33.80;;;;;;5034406;28;20562;-80
2022/04/19 07:05:20;;;;;;;17.75;5.90;;;25.40;34.00;;;;;;5035506;28;20089;-78
2022/04/19 07:07:46;;;;;;;15.88;5.32;;;25.30;34.20;;;;;;5017573;28;20079;-77
2022/04/19 07:10:12;;;;;;;16.67;4.85;;;25.20;34.40;;;;;;5017288;28;20039;-79
2022/04/19 07:12:40;;;;;;;11.68;5.40;;;25.10;34.60;;;;;;5017913;28;20018;-82
2022/04/19 07:15:07;;;;;;;12.13;5.35;;;25.10;34.80;;;;;;5020406;28;20029;-80
2022/04/19 07:17:38;;;;;;;26.65;8.60;;;25.00;34.90;;;;;;5020783;28;20049;-77
2022/04/19 07:28:24;;;;;;;31.23;7.93;;;25.00;36.10;;;;;;5037232;28;20051;-78
2022/04/19 07:30:50;;;;;;;17.38;7.45;;;25.00;36.20;;;;;;5037131;28;20013;-78
2022/04/19 07:33:20;;;;;;;20.58;7.40;;;25.10;36.40;;;;;;5036614;28;20443;-76
2022/04/19 07:35:48;;;;;;;16.20;7.55;;;25.10;36.60;;;;;;5021077;28;20564;-76
2022/04/19 07:38:19;;;;;;;18.75;7.75;;;25.10;36.90;;;;;;5020118;28;20049;-78
2022/04/19 07:40:45;;;;;;;18.50;7.10;;;25.10;37.10;;;;;;5036656;28;20042;-75
2022/04/19 07:43:11;;;;;;;16.50;7.90;;;25.10;37.10;;;;;;5036275;28;20037;-78
2022/04/19 07:45:40;;;;;;;18.67;8.30;;;25.10;36.90;;;;;;5036311;28;20066;-81
2022/04/19 07:48:09;;;;;;;15.95;7.70;;;25.00;37.90;;;;;;5019821;28;20029;-86
2022/04/19 07:50:36;;;;;;;18.35;7.35;;;24.90;38.00;;;;;;5037093;28;20044;-79
2022/04/19 07:53:02;;;;;;;19.02;8.25;;;24.70;38.00;;;;;;5003798;28;20037;-77
2022/04/19 07:55:28;;;;;;;18.90;9.32;;;24.60;38.20;;;;;;5021039;28;20025;-82
2022/04/19 07:57:54;;;;;;;18.20;8.98;;;24.50;37.90;;;;;;5020834;28;20196;-79
2022/04/19 08:00:21;;;;;;;14.07;8.77;;;24.40;37.90;;;;;;5037596;28;20009;-79
2022/04/19 08:02:47;;;;;;;12.95;9.10;;;24.40;37.70;;;;;;5020780;28;20025;-78
2022/04/19 08:05:14;;;;;;;17.60;10.23;;;24.30;37.50;;;;;;5037822;28;20060;-78
2022/04/19 08:07:41;;;;;;;13.70;9.60;;;24.30;36.90;;;;;;5021291;28;20116;-81
2022/04/19 08:10:07;;;;;;;14.85;9.90;;;24.20;36.80;;;;;;5020326;28;20010;-75
2022/04/19 08:12:34;;;;;;;17.77;9.75;;;24.10;36.50;;;;;;5020694;28;20128;-77
2022/04/19 08:15:00;;;;;;;18.17;9.43;;;24.10;36.40;;;;;;5020521;28;20071;-76
2022/04/19 08:17:26;;;;;;;17.20;9.52;;;24.10;35.90;;;;;;5021141;28;20050;-76
2022/04/19 08:19:55;;;;;;;18.85;8.70;;;24.10;35.80;;;;;;5039333;28;20022;-76
2022/04/19 08:22:21;;;;;;;18.42;8.80;;;24.10;35.70;;;;;;5019180;28;20038;-76
2022/04/19 08:24:47;;;;;;;16.95;7.65;;;24.10;35.70;;;;;;5035223;28;20024;-76
2022/04/19 08:27:20;;;;;;;17.00;7.28;;;24.10;35.40;;;;;;5021108;28;20028;-76
2022/04/19 08:29:50;;;;;;;17.70;8.15;;;24.10;34.90;;;;;;5038037;28;20100;-76
2022/04/19 08:32:18;;;;;;;14.88;7.00;;;24.10;34.10;;;;;;5037968;28;20024;-77
2022/04/19 08:34:50;;;;;;;19.17;7.43;;;24.10;34.20;;;;;;5038153;28;20112;-76
2022/04/19 08:37:17;;;;;;;12.27;6.88;;;24.10;34.10;;;;;;5037447;28;20508;-76
2022/04/19 08:39:43;;;;;;;13.77;7.13;;;24.10;34.00;;;;;;5020926;28;20071;-77
2022/04/19 08:42:10;;;;;;;13.18;7.30;;;24.10;34.00;;;;;;5036805;28;20033;-77
2022/04/19 08:44:36;;;;;;;20.48;7.65;;;24.10;34.00;;;;;;5037156;28;20032;-77
2022/04/19 08:47:04;;;;;;;16.02;6.57;;;24.10;33.80;;;;;;5020710;28;20013;-76
2022/04/19 08:49:31;;;;;;;11.10;6.70;;;24.20;33.70;;;;;;5037841;28;20529;-77
2022/04/19 08:51:57;;;;;;;12.30;6.57;;;24.20;33.60;;;;;;5037023;28;20068;-77
2022/04/19 08:59:54;;;;;;;14.23;6.50;;;24.50;33.00;;;;;;5038904;28;20031;-77
2022/04/19 09:02:24;;;;;;;10.80;7.03;;;24.60;32.70;;;;;;5023397;28;20061;-80
2022/04/19 09:04:52;;;;;;;11.65;6.75;;;24.70;32.40;;;;;;5041190;28;20085;-78
2022/04/19 09:07:18;;;;;;;11.23;6.07;;;24.80;32.30;;;;;;5042354;28;20018;-77
2022/04/19 09:09:56;;;;;;;10.57;6.63;;;24.80;32.20;;;;;;5042478;28;20093;-77
2022/04/19 09:12:22;;;;;;;13.80;6.13;;;24.80;32.20;;;;;;5042663;28;20090;-78
2022/04/19 09:15:06;;;;;;;9.68;5.88;;;24.70;32.30;;;;;;5030319;28;20050;-78
2022/04/19 09:17:38;;;;;;;12.77;5.80;;;24.70;32.40;;;;;;5057495;28;20041;-78
2022/04/19 09:20:11;;;;;;;12.85;6.22;;;24.70;32.40;;;;;;5040963;28;20018;-80
2022/04/19 09:22:37;;;;;;;11.35;5.72;;;24.80;32.30;;;;;;5057003;28;20038;-78
2022/04/19 09:25:19;;;;;;;13.43;6.40;;;24.80;32.40;;;;;;5057059;28;20025;-83
2022/04/19 09:27:46;;;;;;;13.10;6.07;;;24.80;32.50;;;;;;5040985;28;20101;-77
2022/04/19 09:30:22;;;;;;;19.27;6.57;;;24.80;32.50;;;;;;5057543;28;20014;-80
2022/04/19 09:33:15;;;;;;;15.45;5.93;;;24.90;32.50;;;;;;5041998;28;20072;-84
2022/04/19 09:35:47;;;;;;;11.73;5.63;;;25.10;32.40;;;;;;5056889;28;20014;-79
2022/04/19 09:38:13;;;;;;;16.23;6.03;;;25.10;32.30;;;;;;5057139;28;20037;-79
2022/04/19 09:40:49;;;;;;;15.60;5.85;;;25.20;32.30;;;;;;5057362;28;20034;-80
2022/04/19 09:43:21;;;;;;;8.80;5.25;;;25.20;32.40;;;;;;5041796;28;20029;-77
2022/04/19 09:45:58;;;;;;;11.98;5.75;;;25.20;32.40;;;;;;5057199;28;20024;-77
2022/04/19 09:48:45;;;;;;;11.85;5.57;;;25.20;32.40;;;;;;5040555;28;20056;-79
2022/04/19 09:51:15;;;;;;;11.50;5.20;;;25.20;32.60;;;;;;5057588;28;20029;-79
2022/04/19 09:53:42;;;;;;;11.38;5.68;;;25.20;32.50;;;;;;5040416;28;20009;-79
2022/04/19 09:56:10;;;;;;;13.60;5.35;;;25.20;32.70;;;;;;5056354;28;20058;-80
2022/04/19 09:58:37;;;;;;;13.02;5.70;;;25.20;32.40;;;;;;5039245;28;20022;-80
2022/04/19 10:01:04;;;;;;;13.82;6.28;;;25.20;32.70;;;;;;5055954;28;20029;-79
2022/04/19 10:08:59;;;;;;;17.45;6.20;;;25.00;32.40;;;;;;5056312;28;20059;-80
2022/04/19 10:11:28;;;;;;;19.33;7.53;;;25.10;31.80;;;;;;5039309;28;20026;-82
2022/04/19 10:13:57;;;;;;;17.73;5.65;;;25.20;31.00;;;;;;5054989;28;20053;-81
2022/04/19 10:16:24;;;;;;;15.33;5.90;;;25.30;30.90;;;;;;5055091;28;20109;-79
2022/04/19 10:18:50;;;;;;;16.90;5.72;;;25.40;30.60;;;;;;5049033;28;20029;-78
2022/04/19 10:21:26;;;;;;;13.63;4.93;;;25.50;30.40;;;;;;5045975;28;20081;-79
2022/04/19 10:24:09;;;;;;;10.50;5.40;;;25.50;30.10;;;;;;5039541;28;20021;-78
2022/04/19 10:26:39;;;;;;;14.82;6.13;;;25.50;29.70;;;;;;5039232;28;20087;-79
2022/04/19 10:29:05;;;;;;;;;;;25.60;29.80;;;;;;5036050;28;20025;-80
2022/04/19 10:31:34;;;;;;;10.55;4.35;;;25.60;29.60;;;;;;5019514;28;19902;-80
2022/04/19 10:34:04;;;;;;;10.50;4.38;;;25.60;29.40;;;;;;5018946;28;20063;-82
2022/04/19 10:36:37;;;;;;;10.07;3.78;;;25.70;29.60;;;;;;5036614;28;20026;-80
2022/04/19 10:39:15;;;;;;;9.55;3.75;;;25.60;29.50;;;;;;5019362;28;20127;-80
2022/04/19 10:42:03;;;;;;;10.80;3.53;;;25.60;29.30;;;;;;5034788;28;20021;-84
2022/04/19 10:44:41;;;;;;;12.95;3.80;;;25.50;29.40;;;;;;5034385;28;20048;-77
2022/04/19 10:47:11;;;;;;;9.02;3.97;;;25.50;29.50;;;;;;5037226;28;20021;-76
2022/04/19 10:49:58;;;;;;;;;;;25.40;29.90;;;;;;5021556;28;20025;-86
2022/04/19 10:52:43;;;;;;;13.50;3.58;;;25.40;29.60;;;;;;5036292;28;20295;-78
2022/04/19 10:55:24;;;;;;;16.15;4.57;;;25.50;29.60;;;;;;5035067;28;20010;-78
2022/04/19 10:58:20;;;;;;;12.48;4.10;;;25.60;29.70;;;;;;5032336;28;20108;-79
2022/04/19 11:00:57;;;;;;;12.43;3.58;;;25.50;29.70;;;;;;5034075;28;20036;-81
2022/04/19 11:03:25;;;;;;;13.00;3.42;;;25.50;29.80;;;;;;5017705;28;20041;-89
2022/04/19 11:05:57;;;;;;;8.32;4.35;;;25.50;29.60;;;;;;5036146;28;20068;-83
2022/04/19 11:08:25;;;;;;;11.52;5.45;;;25.00;28.00;;;;;;5035635;28;20025;-88
2022/04/19 11:11:06;;;;;;;8.80;4.68;;;24.40;27.40;;;;;;5038363;28;20017;-86
2022/04/19 11:13:35;;;;;;;8.80;4.60;;;24.20;27.90;;;;;;5035752;28;20029;-86
2022/04/19 11:16:07;;;;;;;5.70;4.03;;;23.90;27.90;;;;;;5005428;28;20056;-80
2022/04/19 11:18:51;;;;;;;8.50;5.07;;;24.10;27.50;;;;;;5036973;28;20017;-82
2022/04/19 11:21:21;;;;;;;8.27;4.97;;;24.20;27.00;;;;;;5034671;28;20032;-80
2022/04/19 11:23:56;;;;;;;9.02;5.40;;;24.00;25.80;;;;;;5033616;28;20045;-84
2022/04/19 11:26:34;;;;;;;9.75;5.10;;;23.40;25.30;;;;;;5034370;28;20045;-80
2022/04/19 11:29:11;;;;;;;10.98;5.35;;;23.20;24.80;;;;;;5036266;28;20667;-81
2022/04/19 11:31:57;;;;;;;9.52;5.28;;;22.70;24.70;;;;;;5035554;28;20108;-80
2022/04/19 11:34:31;;;;;;;7.15;4.90;;;22.70;24.30;;;;;;5034988;28;20033;-83
2022/04/19 11:37:04;;;;;;;9.90;4.55;;;22.50;24.00;;;;;;5019023;28;20129;-85
2022/04/19 11:48:09;;;;;;;9.65;4.00;;;23.00;24.20;;;;;;4908737;29;20031;-82
2022/04/19 11:50:35;;;;;;;7.43;4.00;;;23.20;24.10;;;;;;4904319;29;20046;-83
2022/04/19 11:53:01;;;;;;;5.10;3.28;;;23.30;23.90;;;;;;4904017;29;20108;-81
2022/04/19 11:55:27;;;;;;;7.25;3.72;;;23.50;24.10;;;;;;4903769;29;20110;-85
2022/04/19 11:58:06;;;;;;;6.65;3.40;;;23.50;24.00;;;;;;4903503;29;20039;-85
2022/04/19 12:00:31;;;;;;;6.90;2.95;;;23.70;24.00;;;;;;4906675;29;20023;-81
2022/04/19 12:02:58;;;;;;;5.53;2.95;;;23.70;24.10;;;;;;4906504;29;20043;-81
2022/04/19 12:05:27;;;;;;;6.05;3.00;;;23.70;23.90;;;;;;4906395;29;20028;-83
2022/04/19 12:07:55;;;;;;;4.75;3.20;;;23.80;23.90;;;;;;4908021;29;20034;-82
2022/04/19 12:10:24;;;;;;;4.55;2.88;;;23.70;23.80;;;;;;4938731;29;20038;-77
2022/04/19 12:12:53;;;;;;;6.43;3.58;;;23.60;23.90;;;;;;4908561;29;20083;-80
2022/04/19 12:15:43;;;;;;;6.20;3.03;;;23.60;24.10;;;;;;4924371;28;20032;-83
2022/04/19 12:18:10;;;;;;;6.80;3.17;;;23.70;24.30;;;;;;5021022;28;20040;-80
2022/04/19 12:20:45;;;;;;;7.57;3.20;;;23.80;24.50;;;;;;5019779;28;20511;-82
2022/04/19 12:23:21;;;;;;;6.85;4.13;;;23.80;24.50;;;;;;5036345;28;20056;-80
2022/04/19 12:26:00;;;;;;;8.57;3.60;;;23.80;24.70;;;;;;5036880;28;20028;-80
2022/04/19 12:28:43;;;;;;;7.30;3.75;;;23.80;24.90;;;;;;5020578;28;20022;-80
2022/04/19 12:31:34;;;;;;;6.95;4.63;;;23.80;24.80;;;;;;5019976;28;20080;-80
2022/04/19 12:34:03;;;;;;;7.55;4.13;;;23.80;24.70;;;;;;5035805;28;20021;-81
2022/04/19 12:36:50;;;;;;;6.10;4.00;;;23.80;24.70;;;;;;5036165;28;20026;-82
2022/04/19 12:39:23;;;;;;;5.93;3.90;;;23.80;24.90;;;;;;5035785;28;20018;-82
2022/04/19 12:42:05;;;;;;;9.85;4.00;;;23.90;25.00;;;;;;5036720;28;20024;-86
2022/04/19 12:44:34;;;;;;;9.60;3.90;;;23.80;24.90;;;;;;5007638;28;20089;-85
2022/04/19 12:47:04;;;;;;;6.65;3.70;;;23.70;25.20;;;;;;5035772;28;20049;-83
2022/04/19 12:49:31;;;;;;;7.70;3.55;;;23.70;25.40;;;;;;5036585;28;20010;-81
2022/04/19 12:52:09;;;;;;;8.57;3.58;;;23.70;25.20;;;;;;5019075;28;20480;-80
2022/04/19 12:54:40;;;;;;;5.47;3.28;;;23.70;25.20;;;;;;5036116;28;20100;-82
2022/04/19 12:57:12;;;;;;;4.93;3.40;;;23.70;25.20;;;;;;5019095;28;20097;-80
2022/04/19 12:59:38;;;;;;;9.40;3.55;;;23.70;25.20;;;;;;5019564;28;20013;-79
2022/04/19 13:02:04;;;;;;;5.95;3.17;;;23.80;25.30;;;;;;5018950;28;20116;-82
2022/04/19 13:04:30;;;;;;;6.68;3.15;;;23.90;25.20;;;;;;5035874;28;20017;-79
2022/04/19 13:12:28;;;;;;;6.05;3.00;;;24.00;25.60;;;;;;5035718;28;20032;-79
2022/04/19 13:14:58;;;;;;;8.52;2.70;;;24.10;25.60;;;;;;5019810;28;20018;-80
2022/04/19 13:17:24;;;;;;;;;;;24.10;25.50;;;;;;5035313;28;20121;-80
2022/04/19 13:19:50;;;;;;;7.15;2.70;;;24.10;25.50;;;;;;5018632;28;19901;-81
2022/04/19 13:22:16;;;;;;;7.38;2.35;;;24.20;25.50;;;;;;5018050;28;20025;-80
2022/04/19 13:24:42;;;;;;;6.43;2.10;;;24.30;25.50;;;;;;5018945;28;20018;-80
2022/04/19 13:27:09;;;;;;;5.13;1.95;;;24.20;25.50;;;;;;5020612;28;20014;-81
2022/04/19 13:29:35;;;;;;;7.40;2.17;;;24.20;25.50;;;;;;5037160;28;20125;-80
2022/04/19 13:32:02;;;;;;;4.57;1.90;;;24.20;25.60;;;;;;5036539;28;20144;-81
2022/04/19 13:34:28;;;;;;;6.13;2.20;;;24.20;25.60;;;;;;5038316;28;20013;-81
2022/04/19 13:36:57;;;;;;;6.60;2.08;;;24.20;25.70;;;;;;5036561;28;20048;-80
2022/04/19 13:39:24;;;;;;;8.55;1.83;;;24.30;25.70;;;;;;5019512;28;20017;-80
2022/04/19 13:41:51;;;;;;;6.50;1.70;;;24.30;25.80;;;;;;5036915;28;20082;-79